createdAt,value
2022-11-23T00:01:32.938Z,97402.78
2022-11-23T00:04:08.650Z,97402.63
2022-11-23T00:06:39.103Z,97400.97
2022-11-23T00:09:06.156Z,97391.78
2022-11-23T00:11:35.323Z,97404.44
2022-11-23T00:14:02.170Z,97406.13
2022-11-23T00:16:30.784Z,97397.66
2022-11-23T00:18:59.560Z,97396.53
2022-11-23T00:21:28.538Z,97352.31
2022-11-23T00:23:55.527Z,97399.03
2022-11-23T00:26:22.140Z,97393.75
2022-11-23T00:28:49.136Z,97397.50
2022-11-23T00:31:18.335Z,97402.63
2022-11-23T00:33:53.463Z,97398.59
2022-11-23T00:36:22.095Z,97402.63
2022-11-23T00:38:50.315Z,97410.53
2022-11-23T00:41:20.042Z,97410.53
2022-11-23T00:43:46.784Z,97394.16
2022-11-23T00:46:16.454Z,97406.94
2022-11-23T00:48:48.499Z,97416.69
2022-11-23T00:51:18.203Z,97415.81
2022-11-23T00:53:45.056Z,97402.47
2022-11-23T00:56:12.366Z,97407.34
2022-11-23T00:58:42.098Z,97413.31
2022-11-23T01:01:16.970Z,97415.81
2022-11-23T01:03:47.387Z,97410.53
2022-11-23T01:06:16.902Z,97407.34
2022-11-23T01:08:52.878Z,97395.41
2022-11-23T01:11:21.075Z,97410.69
2022-11-23T01:13:48.999Z,97409.72
2022-11-23T01:16:24.223Z,97403.59
2022-11-23T01:18:58.708Z,97406.22
2022-11-23T01:21:30.446Z,97406.22
2022-11-23T01:23:57.524Z,97400.28
2022-11-23T01:26:24.708Z,97386.53
2022-11-23T01:28:52.104Z,97394.88
2022-11-23T01:31:24.082Z,97386.00
2022-11-23T01:33:55.810Z,97382.78
2022-11-23T01:38:35.046Z,97393.91
2022-11-23T01:41:01.850Z,97383.75
2022-11-23T01:43:28.374Z,97386.13
2022-11-23T01:45:57.946Z,97399.31
2022-11-23T01:48:30.919Z,97398.31
2022-11-23T01:51:00.893Z,97408.06
2022-11-23T01:53:29.126Z,97402.78
2022-11-23T01:56:02.322Z,97408.88
2022-11-23T01:58:33.004Z,97405.41
2022-11-23T02:00:59.678Z,97407.22
2022-11-23T02:03:29.736Z,97415.97
2022-11-23T02:06:02.639Z,97411.66
2022-11-23T02:08:30.442Z,97413.47
2022-11-23T02:10:59.182Z,97405.41
2022-11-23T02:13:28.605Z,97411.66
2022-11-23T02:15:58.353Z,97407.34
2022-11-23T02:18:31.304Z,97409.16
2022-11-23T02:21:01.625Z,97407.34
2022-11-23T02:23:48.151Z,97407.34
2022-11-23T02:26:21.136Z,97397.75
2022-11-23T02:29:01.781Z,97393.84
2022-11-23T02:31:33.896Z,97397.06
2022-11-23T02:34:00.542Z,97400.38
2022-11-23T02:36:30.612Z,97397.88
2022-11-23T02:39:18.739Z,97398.75
2022-11-23T02:41:49.116Z,97392.63
2022-11-23T02:44:44.717Z,97397.06
2022-11-23T02:49:41.453Z,97375.22
2022-11-23T02:52:09.382Z,97385.94
2022-11-23T02:54:36.520Z,97392.91
2022-11-23T02:57:04.150Z,97388.44
2022-11-23T02:59:35.829Z,97395.53
2022-11-23T03:02:06.598Z,97350.59
2022-11-23T03:04:34.014Z,97370.91
2022-11-23T03:07:00.943Z,97393.84
2022-11-23T03:11:54.367Z,97393.00
2022-11-23T03:14:26.046Z,97394.81
2022-11-23T03:19:48.905Z,97372.59
2022-11-23T03:22:15.753Z,97387.06
2022-11-23T03:25:11.182Z,97372.97
2022-11-23T03:27:39.439Z,97379.66
2022-11-23T03:30:12.439Z,97387.06
2022-11-23T03:34:06.318Z,97388.84
2022-11-23T03:36:36.062Z,97386.19
2022-11-23T03:39:02.840Z,97381.88
2022-11-23T03:44:45.855Z,97383.00
2022-11-23T03:47:12.591Z,97374.41
2022-11-23T03:53:24.114Z,97359.22
2022-11-23T03:56:09.479Z,97390.66
2022-11-23T04:03:25.695Z,97382.88
2022-11-23T04:06:27.975Z,97377.03
2022-11-23T04:09:23.948Z,97379.53
2022-11-23T04:13:41.912Z,97385.75
2022-11-23T04:16:44.536Z,97390.22
2022-11-23T04:22:46.348Z,97392.00
2022-11-23T04:29:17.180Z,97393.09
2022-11-23T04:31:50.486Z,97384.38
2022-11-23T04:34:19.046Z,97383.41
2022-11-23T04:36:49.915Z,97382.56
2022-11-23T04:39:18.535Z,97382.84
2022-11-23T04:42:12.242Z,97384.50
2022-11-23T04:44:39.139Z,97394.06
2022-11-23T04:47:07.610Z,97377.56
2022-11-23T04:49:37.299Z,97384.63
2022-11-23T04:52:04.660Z,97384.50
2022-11-23T04:54:36.331Z,97390.59
2022-11-23T04:57:07.394Z,97384.38
2022-11-23T04:59:34.636Z,97382.84
2022-11-23T05:02:04.836Z,97382.84
2022-11-23T05:04:50.914Z,97385.47
2022-11-23T05:07:20.683Z,97371.81
2022-11-23T05:09:55.317Z,97381.16
2022-11-23T05:12:22.134Z,97376.41
2022-11-23T05:14:48.683Z,97386.28
2022-11-23T05:17:20.851Z,97382.69
2022-11-23T05:19:49.932Z,97384.50
2022-11-23T05:22:17.203Z,97375.59
2022-11-23T05:24:44.282Z,97379.25
2022-11-23T05:27:16.513Z,97382.56
2022-11-23T05:29:43.337Z,97387.00
2022-11-23T05:32:10.911Z,97396.69
2022-11-23T05:34:38.345Z,97390.75
2022-11-23T05:37:07.640Z,97400.19
2022-11-23T05:39:38.854Z,97399.34
2022-11-23T05:42:05.911Z,97411.69
2022-11-23T05:44:38.980Z,97406.44
2022-11-23T05:47:09.898Z,97405.59
2022-11-23T05:49:38.200Z,97423.91
2022-11-23T05:52:06.183Z,97419.59
2022-11-23T05:54:33.959Z,97410.16
2022-11-23T05:59:02.569Z,97415.28
2022-11-23T06:01:29.267Z,97411.25
2022-11-23T06:04:39.279Z,97417.22
2022-11-23T06:07:10.044Z,97409.31
2022-11-23T06:09:53.941Z,97414.56
2022-11-23T06:12:26.432Z,97425.84
2022-11-23T06:14:57.765Z,97355.47
2022-11-23T06:17:26.177Z,97435.66
2022-11-23T06:19:58.903Z,97430.81
2022-11-23T06:22:26.003Z,97448.41
2022-11-23T06:24:59.249Z,97446.63
2022-11-23T06:27:41.792Z,97452.72
2022-11-23T06:30:17.832Z,97446.50
2022-11-23T06:32:47.275Z,97443.00
2022-11-23T06:35:16.941Z,97440.63
2022-11-23T06:37:54.798Z,97452.59
2022-11-23T06:41:45.049Z,97448.28
2022-11-23T06:44:13.113Z,97409.66
2022-11-23T06:46:53.423Z,97451.03
2022-11-23T06:51:05.046Z,97444.09
2022-11-23T06:55:29.707Z,97451.19
2022-11-23T06:57:58.246Z,97466.63
2022-11-23T07:00:36.970Z,97467.56
2022-11-23T07:04:28.345Z,97464.22
2022-11-23T07:06:54.980Z,97473.09
2022-11-23T07:13:53.555Z,97466.28
2022-11-23T07:26:24.646Z,97453.53
2022-11-23T07:31:43.693Z,97470.28
2022-11-23T07:34:49.208Z,97457.22
2022-11-23T07:37:17.254Z,97458.22
2022-11-23T07:40:00.866Z,97461.66
2022-11-23T07:42:34.511Z,97451.03
2022-11-23T07:45:03.109Z,97460.94
2022-11-23T07:49:19.252Z,97409.97
2022-11-23T07:53:10.827Z,97445.41
2022-11-23T07:55:37.430Z,97458.31
2022-11-23T07:58:05.870Z,97447.91
2022-11-23T08:00:33.224Z,97442.50
2022-11-23T08:05:47.289Z,97443.34
2022-11-23T08:08:14.236Z,97441.16
2022-11-23T08:10:45.284Z,97450.59
2022-11-23T08:13:14.238Z,97446.16
2022-11-23T08:15:41.388Z,97438.13
2022-11-23T08:18:07.982Z,97442.31
2022-11-23T08:20:34.689Z,97448.28
2022-11-23T08:23:01.283Z,97445.63
2022-11-23T08:25:29.933Z,97436.19
2022-11-23T08:28:01.987Z,97439.97
2022-11-23T08:30:30.516Z,97443.47
2022-11-23T08:32:57.310Z,97445.16
2022-11-23T08:35:24.239Z,97441.53
2022-11-23T08:37:50.839Z,97440.56
2022-11-23T08:40:25.696Z,97444.88
2022-11-23T08:42:52.725Z,97450.00
2022-11-23T08:45:22.794Z,97435.38
2022-11-23T08:47:50.951Z,97453.59
2022-11-23T08:50:18.935Z,97466.53
2022-11-23T08:52:46.376Z,97463.75
2022-11-23T08:55:14.741Z,97462.81
2022-11-23T08:59:58.642Z,97451.47
2022-11-23T09:02:25.424Z,97480.31
2022-11-23T09:06:38.713Z,97474.19
2022-11-23T09:09:07.074Z,97473.22
2022-11-23T09:11:33.736Z,97474.06
2022-11-23T09:14:00.537Z,97450.16
2022-11-23T09:16:32.396Z,97467.84
2022-11-23T09:19:00.471Z,97448.09
2022-11-23T09:21:33.406Z,97455.34
2022-11-23T09:24:00.746Z,97456.19
2022-11-23T09:26:27.367Z,97457.88
2022-11-23T09:28:54.024Z,97457.88
2022-11-23T09:31:20.642Z,97464.69
2022-11-23T09:33:47.231Z,97446.31
2022-11-23T09:36:13.771Z,97442.72
2022-11-23T09:38:57.232Z,97443.56
2022-11-23T09:41:51.468Z,97436.50
2022-11-23T09:44:52.291Z,97433.03
2022-11-23T09:47:40.244Z,97436.50
2022-11-23T09:50:07.409Z,97429.41
2022-11-23T09:52:36.462Z,97424.97
2022-11-23T09:55:15.602Z,97419.69
2022-11-23T09:57:46.623Z,97404.41
2022-11-23T10:00:22.702Z,97406.38
2022-11-23T10:02:50.029Z,97415.97
2022-11-23T10:05:22.664Z,97408.06
2022-11-23T10:08:42.631Z,97409.88
2022-11-23T10:11:24.521Z,97409.72
2022-11-23T10:14:29.897Z,97404.44
2022-11-23T10:17:23.122Z,97406.22
2022-11-23T10:20:01.929Z,97397.38
2022-11-23T10:22:48.043Z,97401.81
2022-11-23T10:25:23.471Z,97399.19
2022-11-23T10:27:57.791Z,97397.50
2022-11-23T10:30:24.370Z,97404.31
2022-11-23T10:32:58.538Z,97395.56
2022-11-23T10:35:34.127Z,97396.69
2022-11-23T10:38:18.324Z,97393.75
2022-11-23T10:40:53.491Z,97386.66
2022-11-23T10:43:29.474Z,97394.56
2022-11-23T10:46:34.040Z,97399.84
2022-11-23T10:49:19.146Z,97398.22
2022-11-23T10:51:52.291Z,97384.31
2022-11-23T10:54:24.617Z,97385.03
2022-11-23T10:56:53.529Z,97379.03
2022-11-23T10:59:38.871Z,97376.25
2022-11-23T11:02:20.643Z,97370.56
2022-11-23T11:04:52.170Z,97375.16
2022-11-23T11:07:30.568Z,97369.59
2022-11-23T11:09:58.960Z,97379.47
2022-11-23T11:12:30.576Z,97378.66
2022-11-23T11:15:11.227Z,97367.25
2022-11-23T11:17:39.625Z,97374.19
2022-11-23T11:20:33.854Z,97372.53
2022-11-23T11:23:04.642Z,97371.69
2022-11-23T11:25:39.377Z,97372.53
2022-11-23T11:28:37.054Z,97379.47
2022-11-23T11:31:16.639Z,97374.19
2022-11-23T11:33:55.859Z,97365.47
2022-11-23T11:36:24.958Z,97373.47
2022-11-23T11:39:17.339Z,97379.47
2022-11-23T11:41:45.017Z,97349.84
2022-11-23T11:44:21.788Z,97366.81
2022-11-23T11:46:55.382Z,97381.16
2022-11-23T11:49:27.037Z,97361.94
2022-11-23T11:52:14.007Z,97387.25
2022-11-23T11:54:51.957Z,97366.00
2022-11-23T11:57:32.330Z,97367.78
2022-11-23T12:00:05.320Z,97379.47
2022-11-23T12:02:54.989Z,97340.13
2022-11-23T12:05:29.834Z,97380.44
2022-11-23T12:08:14.663Z,97387.38
2022-11-23T12:10:52.473Z,97369.59
2022-11-23T12:13:31.096Z,97376.00
2022-11-23T12:16:22.780Z,97376.84
2022-11-23T12:19:17.383Z,97376.84
2022-11-23T12:22:05.989Z,97376.84
2022-11-23T12:24:38.741Z,97383.94
2022-11-23T12:27:05.247Z,97378.75
2022-11-23T12:29:47.823Z,97385.59
2022-11-23T12:32:33.248Z,97377.69
2022-11-23T12:35:23.358Z,97395.16
2022-11-23T12:38:05.679Z,97362.34
2022-11-23T12:40:35.224Z,97382.97
2022-11-23T12:43:12.096Z,97361.25
2022-11-23T12:45:59.337Z,97380.44
2022-11-23T12:48:34.895Z,97376.97
2022-11-23T12:51:26.412Z,97381.41
2022-11-23T12:53:53.167Z,97381.41
2022-11-23T12:56:33.398Z,97385.72
2022-11-23T12:59:01.173Z,97386.56
2022-11-23T13:01:39.282Z,97394.56
2022-11-23T13:04:34.073Z,97403.22
2022-11-23T13:07:30.539Z,97383.34
2022-11-23T13:10:18.781Z,97382.97
2022-11-23T13:12:46.938Z,97383.94
2022-11-23T13:15:32.636Z,97389.88
2022-11-23T13:18:40.974Z,97396.00
2022-11-23T13:21:31.346Z,97408.34
2022-11-23T13:23:58.408Z,97409.19
2022-11-23T13:26:28.669Z,97401.28
2022-11-23T13:28:58.832Z,97401.13
2022-11-23T13:31:33.784Z,97400.19
2022-11-23T13:34:04.609Z,97373.63
2022-11-23T13:37:10.598Z,97403.53
2022-11-23T13:39:50.863Z,97404.50
2022-11-23T13:42:18.675Z,97396.56
2022-11-23T13:44:45.352Z,97366.25
2022-11-23T13:47:17.850Z,97397.41
2022-11-23T13:49:47.961Z,97385.72
2022-11-23T13:52:23.400Z,97401.72
2022-11-23T13:55:05.613Z,97394.75
2022-11-23T13:57:45.375Z,97401.84
2022-11-23T14:00:50.671Z,97395.72
2022-11-23T14:03:48.838Z,97402.81
2022-11-23T14:06:27.759Z,97401.97
2022-11-23T14:09:19.432Z,97398.50
2022-11-23T14:12:11.379Z,97400.19
2022-11-23T14:14:48.631Z,97410.88
2022-11-23T14:18:09.281Z,97415.16
2022-11-23T14:20:52.752Z,97402.97
2022-11-23T14:23:28.348Z,97408.09
2022-11-23T14:26:03.866Z,97401.00
2022-11-23T14:28:46.293Z,97397.69
2022-11-23T14:31:36.184Z,97398.38
2022-11-23T14:34:25.026Z,97389.63
2022-11-23T14:37:14.375Z,97396.69
2022-11-23T14:39:46.901Z,97403.78
2022-11-23T14:42:23.600Z,97402.25
2022-11-23T14:44:51.334Z,97410.88
2022-11-23T14:47:27.811Z,97419.59
2022-11-23T14:49:54.984Z,97415.56
2022-11-23T14:52:29.842Z,97423.91
2022-11-23T14:57:28.315Z,97401.19
2022-11-23T15:00:00.813Z,97427.66
2022-11-23T15:02:39.503Z,97419.31
2022-11-23T15:05:19.188Z,97422.38
2022-11-23T15:08:10.788Z,97422.38
2022-11-23T15:10:39.887Z,97424.06
2022-11-23T15:13:21.717Z,97428.34
2022-11-23T15:15:52.440Z,97418.47
2022-11-23T15:18:30.772Z,97436.16
2022-11-23T15:21:00.901Z,97431.97
2022-11-23T15:23:35.346Z,97432.09
2022-11-23T15:26:34.673Z,97438.50
2022-11-23T15:29:01.096Z,97434.19
2022-11-23T15:31:35.471Z,97440.19
2022-11-23T15:34:12.095Z,97436.72
2022-11-23T15:36:40.872Z,97442.00
2022-11-23T15:39:13.678Z,97448.94
2022-11-23T15:41:40.783Z,97443.09
2022-11-23T15:44:26.346Z,97433.94
2022-11-23T15:47:02.674Z,97438.25
2022-11-23T15:49:29.670Z,97427.28
2022-11-23T15:52:00.562Z,97442.44
2022-11-23T15:54:35.216Z,97440.75
2022-11-23T15:57:03.567Z,97438.94
2022-11-23T15:59:50.150Z,97443.25
2022-11-23T16:02:24.668Z,97442.28
2022-11-23T16:05:15.197Z,97444.09
2022-11-23T16:07:51.647Z,97437.16
2022-11-23T16:10:21.953Z,97436.44
2022-11-23T16:12:51.771Z,97444.22
2022-11-23T16:15:27.556Z,97451.31
2022-11-23T16:17:54.503Z,97441.13
2022-11-23T16:20:26.303Z,97438.25
2022-11-23T16:22:55.623Z,97438.25
2022-11-23T16:25:40.062Z,97454.91
2022-11-23T16:28:17.815Z,97450.00
2022-11-23T16:30:48.641Z,97449.78
2022-11-23T16:33:17.638Z,97455.03
2022-11-23T16:35:45.131Z,97449.91
2022-11-23T16:38:12.826Z,97455.03
2022-11-23T16:40:40.700Z,97448.63
2022-11-23T16:43:39.935Z,97457.81
2022-11-23T16:46:12.367Z,97459.59
2022-11-23T16:48:42.132Z,97470.16
2022-11-23T16:51:11.591Z,97472.78
2022-11-23T16:56:03.002Z,97464.06
2022-11-23T16:58:34.792Z,97464.88
2022-11-23T17:01:04.723Z,97457.09
2022-11-23T17:03:32.958Z,97456.16
2022-11-23T17:05:59.500Z,97459.75
2022-11-23T17:08:26.570Z,97463.09
2022-11-23T17:10:53.319Z,97464.88
2022-11-23T17:13:25.359Z,97474.59
2022-11-23T17:15:53.119Z,97462.91
2022-11-23T17:18:22.252Z,97473.06
2022-11-23T17:20:49.124Z,97476.28
2022-11-23T17:23:16.473Z,97470.44
2022-11-23T17:25:43.229Z,97479.75
2022-11-23T17:28:15.693Z,97479.75
2022-11-23T17:30:43.201Z,97475.44
2022-11-23T17:33:16.994Z,97480.72
2022-11-23T17:35:44.606Z,97484.44
2022-11-23T17:38:17.077Z,97489.34
2022-11-23T17:40:46.701Z,97485.16
2022-11-23T17:43:14.646Z,97485.03
2022-11-23T17:45:41.425Z,97491.00
2022-11-23T17:48:12.907Z,97484.88
2022-11-23T17:53:29.769Z,97488.38
2022-11-23T17:55:57.491Z,97473.50
2022-11-23T17:58:25.495Z,97482.13
2022-11-23T18:00:52.542Z,97475.03
2022-11-23T18:03:19.547Z,97472.41
2022-11-23T18:05:46.086Z,97477.69
2022-11-23T18:08:16.966Z,97484.63
2022-11-23T18:10:44.076Z,97491.69
2022-11-23T18:13:10.731Z,97486.41
2022-11-23T18:15:37.793Z,97490.72
2022-11-23T18:18:05.144Z,97483.91
2022-11-23T18:20:32.280Z,97485.47
2022-11-23T18:24:04.348Z,97488.25
2022-11-23T18:26:31.767Z,97487.41
2022-11-23T18:28:58.882Z,97481.16
2022-11-23T18:31:25.588Z,97478.50
2022-11-23T18:33:52.108Z,97478.50
2022-11-23T18:36:18.834Z,97462.81
2022-11-23T18:38:46.530Z,97464.78
2022-11-23T18:41:16.264Z,97480.19
2022-11-23T18:43:44.103Z,97475.75
2022-11-23T18:46:12.914Z,97466.31
2022-11-23T18:48:39.800Z,97479.22
2022-11-23T18:51:11.717Z,97477.53
2022-11-23T18:53:40.254Z,97471.44
2022-11-23T19:00:54.043Z,97470.47
2022-11-23T19:03:21.061Z,97473.94
2022-11-23T19:07:29.661Z,97470.34
2022-11-23T19:09:56.325Z,97473.94
2022-11-23T19:12:23.916Z,97480.91
2022-11-23T19:14:54.004Z,97475.63
2022-11-23T19:17:23.715Z,97460.47
2022-11-23T19:19:50.488Z,97475.88
2022-11-23T19:22:17.718Z,97455.28
2022-11-23T19:24:44.396Z,97478.25
2022-11-23T19:28:54.151Z,97457.25
2022-11-23T19:31:24.016Z,97469.06
2022-11-23T19:33:52.511Z,97481.84
2022-11-23T19:36:21.992Z,97482.72
2022-11-23T19:38:49.577Z,97486.16
2022-11-23T19:41:17.328Z,97493.13
2022-11-23T19:43:44.698Z,97483.53
2022-11-23T19:46:13.572Z,97479.09
2022-11-23T19:48:42.270Z,97470.88
2022-11-23T19:51:13.578Z,97480.06
2022-11-23T19:53:41.441Z,97486.16
2022-11-23T19:56:11.713Z,97486.03
2022-11-23T19:59:13.018Z,97479.94
2022-11-23T20:01:40.466Z,97482.56
2022-11-23T20:04:09.691Z,97426.72
2022-11-23T20:06:42.987Z,97492.41
2022-11-23T20:09:12.996Z,97499.50
2022-11-23T20:11:40.988Z,97502.38
2022-11-23T20:14:08.523Z,97495.72
2022-11-23T20:16:35.424Z,97498.06
2022-11-23T20:19:10.783Z,97497.38
2022-11-23T20:21:38.722Z,97510.59
2022-11-23T20:24:07.881Z,97509.88
2022-11-23T20:26:36.597Z,97518.75
2022-11-23T20:29:07.590Z,97519.69
2022-11-23T20:31:35.494Z,97514.56
2022-11-23T20:34:06.599Z,97519.84
2022-11-23T20:36:35.804Z,97517.47
2022-11-23T20:39:06.394Z,97507.16
2022-11-23T20:41:35.043Z,97519.41
2022-11-23T20:44:03.201Z,97520.22
2022-11-23T20:46:59.912Z,97516.03
2022-11-23T20:49:19.229Z,97521.31
2022-11-23T20:51:45.892Z,97519.63
2022-11-23T20:54:12.736Z,97522.28
2022-11-23T20:56:39.569Z,97523.28
2022-11-23T20:59:06.439Z,97532.97
2022-11-23T21:01:35.087Z,97527.97
2022-11-23T21:04:02.390Z,97532.97
2022-11-23T21:06:29.064Z,97534.66
2022-11-23T21:08:58.360Z,97521.69
2022-11-23T21:11:48.499Z,97531.72
2022-11-23T21:14:20.855Z,97527.44
2022-11-23T21:17:08.983Z,97521.06
2022-11-23T21:19:42.035Z,97532.31
2022-11-23T21:22:10.933Z,97535.66
2022-11-23T21:24:38.189Z,97520.34
2022-11-23T21:27:09.570Z,97529.28
2022-11-23T21:29:39.360Z,97519.84
2022-11-23T21:32:06.106Z,97508.41
2022-11-23T21:34:33.143Z,97532.06
2022-11-23T21:37:05.760Z,97534.56
2022-11-23T21:39:38.492Z,97525.91
2022-11-23T21:42:05.399Z,97545.25
2022-11-23T21:44:32.476Z,97531.34
2022-11-23T21:46:59.388Z,97538.56
2022-11-23T21:49:27.989Z,97540.22
2022-11-23T21:51:54.775Z,97544.69
2022-11-23T21:54:21.351Z,97530.91
2022-11-23T21:56:48.506Z,97538.00
2022-11-23T21:59:15.118Z,97533.69
2022-11-23T22:04:10.793Z,97530.19
2022-11-23T22:06:38.491Z,97533.69
2022-11-23T22:09:10.907Z,97542.56
2022-11-23T22:11:43.176Z,97527.50
2022-11-23T22:14:11.951Z,97536.47
2022-11-23T22:19:14.991Z,97534.88
2022-11-23T22:21:43.883Z,97534.88
2022-11-23T22:24:15.711Z,97521.16
2022-11-23T22:26:43.049Z,97529.63
2022-11-23T22:29:10.039Z,97527.97
2022-11-23T22:31:36.913Z,97524.34
2022-11-23T22:34:07.566Z,97517.34
2022-11-23T22:36:35.370Z,97516.38
2022-11-23T22:40:47.876Z,97535.16
2022-11-23T22:43:14.663Z,97543.06
2022-11-23T22:45:41.512Z,97543.91
2022-11-23T22:50:32.899Z,97504.50
2022-11-23T22:53:01.131Z,97533.50
2022-11-23T22:55:27.734Z,97538.03
2022-11-23T22:57:54.453Z,97539.03
2022-11-23T23:00:23.937Z,97524.56
2022-11-23T23:02:50.921Z,97539.03
2022-11-23T23:05:19.540Z,97535.53
2022-11-23T23:07:46.180Z,97525.84
2022-11-23T23:10:13.374Z,97524.16
2022-11-23T23:12:43.409Z,97528.59
2022-11-23T23:15:10.854Z,97533.88
2022-11-23T23:18:13.948Z,97525.25
2022-11-23T23:20:40.715Z,97528.72
2022-11-23T23:24:04.068Z,97526.09
2022-11-23T23:26:45.888Z,97523.84
2022-11-23T23:29:13.764Z,97521.19
2022-11-23T23:33:59.936Z,97521.09
2022-11-23T23:36:26.878Z,97521.09
2022-11-23T23:40:39.044Z,97500.03
2022-11-23T23:45:16.877Z,97494.66
2022-11-23T23:47:48.180Z,97521.19
2022-11-23T23:50:15.247Z,97522.16
2022-11-23T23:52:42.464Z,97518.69
2022-11-23T23:55:09.940Z,97526.59
2022-11-23T23:57:37.604Z,97526.59
